Hlavní strana
METAR-TAF:

METAR-TAF

Letiště :

Røst, Norsko

zeměpisná šířka: 67-31N, zeměpisná délka: 012-06E, výška: 4 m

Aktuální stav počasí

Zpráva byla vytvořena před 2 hodinami a 38 minutami, v 05:20 UTC
Jižní vítr 10 kt
Teplota 8°C
Vlhkost vzduchu 100%
Tlak 1020 hPa
Viditelnost 10 km a více
Zataženo ve výšce 300 ft

METAR: ENRS 250520Z 18010KT 9999 OVC003 08/08 Q1020

Čas: 09:58 (07:58 UTC)


TAF: chybějící

Stav a předpovědi počasí z více než 4 000 letišť (zprávy METAR a TAF).

Červené a žluté tečky na mapě představují dostupné meteorologické stanice.

Když kurzor umístíte na tečku, zobrazí se název stanice.

Pak kliknutím zobrazíte stav a předpověď počasí.

Chcete-li změnit mapu, kliknutím na zelené tlačítko se znaménkem +mapu přiblížíte, kliknutím na zelené tlačítko se znaménkem – mapu oddálíte a kliknutím na zelené šipky přejdete na sousední mapy.


METAR-TAF: